sensor_id;sensor_type;location;lat;lon;timestamp;temperature;humidity
63771;DHT22;60282;43.862;18.430;2023-06-14T00:00:43;16.40;99.90
63771;DHT22;60282;43.862;18.430;2023-06-14T00:03:10;16.30;99.90
63771;DHT22;60282;43.862;18.430;2023-06-14T00:05:37;16.30;99.90
63771;DHT22;60282;43.862;18.430;2023-06-14T00:08:09;16.20;99.90
63771;DHT22;60282;43.862;18.430;2023-06-14T00:10:36;16.10;99.90
63771;DHT22;60282;43.862;18.430;2023-06-14T00:13:03;16.10;99.90
63771;DHT22;60282;43.862;18.430;2023-06-14T00:15:31;14.20;99.90
63771;DHT22;60282;43.862;18.430;2023-06-14T00:17:57;15.90;99.90
63771;DHT22;60282;43.862;18.430;2023-06-14T00:20:27;15.80;99.90
63771;DHT22;60282;43.862;18.430;2023-06-14T00:22:53;15.80;99.90
63771;DHT22;60282;43.862;18.430;2023-06-14T00:25:22;15.80;99.90
63771;DHT22;60282;43.862;18.430;2023-06-14T00:27:48;18.30;99.90
63771;DHT22;60282;43.862;18.430;2023-06-14T00:30:14;13.20;99.90
63771;DHT22;60282;43.862;18.430;2023-06-14T00:32:40;15.60;99.90
63771;DHT22;60282;43.862;18.430;2023-06-14T00:35:09;15.50;99.90
63771;DHT22;60282;43.862;18.430;2023-06-14T00:37:35;15.50;99.90
63771;DHT22;60282;43.862;18.430;2023-06-14T00:40:01;15.40;99.90
63771;DHT22;60282;43.862;18.430;2023-06-14T00:42:28;15.40;99.90
63771;DHT22;60282;43.862;18.430;2023-06-14T00:44:54;15.30;99.90
63771;DHT22;60282;43.862;18.430;2023-06-14T00:47:20;15.30;99.90
63771;DHT22;60282;43.862;18.430;2023-06-14T00:49:48;15.20;99.90
63771;DHT22;60282;43.862;18.430;2023-06-14T00:52:14;15.20;99.90
63771;DHT22;60282;43.862;18.430;2023-06-14T00:54:41;15.20;99.90
63771;DHT22;60282;43.862;18.430;2023-06-14T00:57:08;15.10;99.90
63771;DHT22;60282;43.862;18.430;2023-06-14T00:59:41;15.00;99.90
63771;DHT22;60282;43.862;18.430;2023-06-14T01:02:08;14.90;99.90
63771;DHT22;60282;43.862;18.430;2023-06-14T01:04:33;14.50;99.90
63771;DHT22;60282;43.862;18.430;2023-06-14T01:07:06;14.80;99.90
63771;DHT22;60282;43.862;18.430;2023-06-14T01:14:54;14.70;99.90
63771;DHT22;60282;43.862;18.430;2023-06-14T01:17:22;14.60;99.90
63771;DHT22;60282;43.862;18.430;2023-06-14T01:19:48;14.70;99.90
63771;DHT22;60282;43.862;18.430;2023-06-14T01:22:14;14.60;99.90
63771;DHT22;60282;43.862;18.430;2023-06-14T01:24:40;14.50;99.90
63771;DHT22;60282;43.862;18.430;2023-06-14T01:27:11;16.80;99.90
63771;DHT22;60282;43.862;18.430;2023-06-14T01:29:39;14.50;99.90
63771;DHT22;60282;43.862;18.430;2023-06-14T01:32:11;14.50;99.90
63771;DHT22;60282;43.862;18.430;2023-06-14T01:34:37;14.50;99.90
63771;DHT22;60282;43.862;18.430;2023-06-14T01:37:03;14.40;99.90
63771;DHT22;60282;43.862;18.430;2023-06-14T01:39:29;14.40;99.90
63771;DHT22;60282;43.862;18.430;2023-06-14T01:41:55;14.40;99.90
63771;DHT22;60282;43.862;18.430;2023-06-14T01:44:23;14.40;99.90
63771;DHT22;60282;43.862;18.430;2023-06-14T01:46:51;14.30;99.90
63771;DHT22;60282;43.862;18.430;2023-06-14T01:49:16;14.20;99.90
63771;DHT22;60282;43.862;18.430;2023-06-14T01:51:42;11.80;99.90
63771;DHT22;60282;43.862;18.430;2023-06-14T01:54:11;14.00;99.90
63771;DHT22;60282;43.862;18.430;2023-06-14T01:56:36;14.00;99.90
63771;DHT22;60282;43.862;18.430;2023-06-14T01:59:02;14.00;99.90
63771;DHT22;60282;43.862;18.430;2023-06-14T02:01:28;14.00;99.90
63771;DHT22;60282;43.862;18.430;2023-06-14T02:03:54;14.00;99.90
63771;DHT22;60282;43.862;18.430;2023-06-14T02:06:19;13.90;99.90
63771;DHT22;60282;43.862;18.430;2023-06-14T02:08:45;13.90;99.90
63771;DHT22;60282;43.862;18.430;2023-06-14T02:11:11;13.90;99.90
63771;DHT22;60282;43.862;18.430;2023-06-14T02:13:36;13.80;99.90
63771;DHT22;60282;43.862;18.430;2023-06-14T02:16:02;13.80;99.90
63771;DHT22;60282;43.862;18.430;2023-06-14T02:18:28;13.80;99.90
63771;DHT22;60282;43.862;18.430;2023-06-14T02:20:54;13.70;99.90
63771;DHT22;60282;43.862;18.430;2023-06-14T02:23:20;13.80;99.90
63771;DHT22;60282;43.862;18.430;2023-06-14T02:25:46;13.80;99.90
63771;DHT22;60282;43.862;18.430;2023-06-14T02:28:12;14.30;99.90
63771;DHT22;60282;43.862;18.430;2023-06-14T02:30:38;15.90;99.90
63771;DHT22;60282;43.862;18.430;2023-06-14T02:33:04;16.30;99.90
63771;DHT22;60282;43.862;18.430;2023-06-14T02:35:30;15.80;99.90
63771;DHT22;60282;43.862;18.430;2023-06-14T02:37:56;16.50;99.90
63771;DHT22;60282;43.862;18.430;2023-06-14T02:40:22;16.40;99.90
63771;DHT22;60282;43.862;18.430;2023-06-14T02:42:48;16.80;99.90
63771;DHT22;60282;43.862;18.430;2023-06-14T02:45:14;17.00;99.90
63771;DHT22;60282;43.862;18.430;2023-06-14T02:47:40;17.10;99.90
63771;DHT22;60282;43.862;18.430;2023-06-14T02:50:07;17.20;99.90
63771;DHT22;60282;43.862;18.430;2023-06-14T02:52:33;17.60;99.90
63771;DHT22;60282;43.862;18.430;2023-06-14T02:54:59;17.40;99.90
63771;DHT22;60282;43.862;18.430;2023-06-14T02:57:25;17.00;99.90
63771;DHT22;60282;43.862;18.430;2023-06-14T02:59:50;16.40;99.90
63771;DHT22;60282;43.862;18.430;2023-06-14T03:02:17;16.00;99.90
63771;DHT22;60282;43.862;18.430;2023-06-14T03:04:43;16.50;99.90
63771;DHT22;60282;43.862;18.430;2023-06-14T03:07:10;16.60;99.90
63771;DHT22;60282;43.862;18.430;2023-06-14T03:09:39;16.90;99.90
63771;DHT22;60282;43.862;18.430;2023-06-14T03:12:06;17.40;99.90
63771;DHT22;60282;43.862;18.430;2023-06-14T03:14:32;16.80;99.90
63771;DHT22;60282;43.862;18.430;2023-06-14T03:16:58;16.80;99.90
63771;DHT22;60282;43.862;18.430;2023-06-14T03:19:24;17.10;99.90
63771;DHT22;60282;43.862;18.430;2023-06-14T03:21:52;16.40;99.90
63771;DHT22;60282;43.862;18.430;2023-06-14T03:24:17;16.00;99.90
63771;DHT22;60282;43.862;18.430;2023-06-14T03:26:43;16.10;99.90
63771;DHT22;60282;43.862;18.430;2023-06-14T03:29:09;16.10;99.90
63771;DHT22;60282;43.862;18.430;2023-06-14T03:31:35;16.60;99.90
63771;DHT22;60282;43.862;18.430;2023-06-14T03:34:01;16.10;99.90
63771;DHT22;60282;43.862;18.430;2023-06-14T03:36:27;16.10;99.90
63771;DHT22;60282;43.862;18.430;2023-06-14T03:38:53;16.50;99.90
63771;DHT22;60282;43.862;18.430;2023-06-14T03:41:20;15.70;99.90
63771;DHT22;60282;43.862;18.430;2023-06-14T03:43:46;15.60;99.90
63771;DHT22;60282;43.862;18.430;2023-06-14T03:46:11;15.60;99.90
63771;DHT22;60282;43.862;18.430;2023-06-14T03:48:37;15.80;99.90
63771;DHT22;60282;43.862;18.430;2023-06-14T03:51:04;15.80;99.90
63771;DHT22;60282;43.862;18.430;2023-06-14T03:53:30;13.40;99.90
63771;DHT22;60282;43.862;18.430;2023-06-14T03:55:56;15.50;99.90
63771;DHT22;60282;43.862;18.430;2023-06-14T03:58:22;15.60;99.90
63771;DHT22;60282;43.862;18.430;2023-06-14T04:00:48;15.10;99.90
63771;DHT22;60282;43.862;18.430;2023-06-14T04:03:14;14.80;99.90
63771;DHT22;60282;43.862;18.430;2023-06-14T04:05:41;15.20;99.90
63771;DHT22;60282;43.862;18.430;2023-06-14T04:08:08;15.40;99.90
63771;DHT22;60282;43.862;18.430;2023-06-14T04:10:40;15.40;99.90
63771;DHT22;60282;43.862;18.430;2023-06-14T04:13:06;16.50;99.90
63771;DHT22;60282;43.862;18.430;2023-06-14T04:15:32;17.00;99.90
63771;DHT22;60282;43.862;18.430;2023-06-14T04:17:59;17.50;99.90
63771;DHT22;60282;43.862;18.430;2023-06-14T04:20:24;17.40;99.90
63771;DHT22;60282;43.862;18.430;2023-06-14T04:22:51;17.70;99.90
63771;DHT22;60282;43.862;18.430;2023-06-14T04:25:18;17.70;99.90
63771;DHT22;60282;43.862;18.430;2023-06-14T04:27:44;17.70;99.90
63771;DHT22;60282;43.862;18.430;2023-06-14T04:30:10;17.80;99.90
63771;DHT22;60282;43.862;18.430;2023-06-14T04:32:36;17.30;99.90
63771;DHT22;60282;43.862;18.430;2023-06-14T04:35:08;17.10;99.90
63771;DHT22;60282;43.862;18.430;2023-06-14T04:37:34;17.00;99.90
63771;DHT22;60282;43.862;18.430;2023-06-14T04:40:00;17.00;99.90
63771;DHT22;60282;43.862;18.430;2023-06-14T04:42:26;17.20;99.90
63771;DHT22;60282;43.862;18.430;2023-06-14T04:44:56;17.40;99.90
63771;DHT22;60282;43.862;18.430;2023-06-14T04:47:23;17.70;99.90
63771;DHT22;60282;43.862;18.430;2023-06-14T04:49:55;17.60;99.90
63771;DHT22;60282;43.862;18.430;2023-06-14T04:52:21;17.80;99.90
63771;DHT22;60282;43.862;18.430;2023-06-14T04:54:47;18.10;99.90
63771;DHT22;60282;43.862;18.430;2023-06-14T04:57:13;18.00;99.90
63771;DHT22;60282;43.862;18.430;2023-06-14T04:59:39;18.30;99.90
63771;DHT22;60282;43.862;18.430;2023-06-14T05:02:05;18.30;99.90
63771;DHT22;60282;43.862;18.430;2023-06-14T05:04:32;18.50;99.90
63771;DHT22;60282;43.862;18.430;2023-06-14T05:06:58;18.60;99.90
63771;DHT22;60282;43.862;18.430;2023-06-14T05:09:24;18.80;99.90
63771;DHT22;60282;43.862;18.430;2023-06-14T05:11:50;18.80;99.90
63771;DHT22;60282;43.862;18.430;2023-06-14T05:14:16;19.00;99.90
63771;DHT22;60282;43.862;18.430;2023-06-14T05:16:42;19.00;99.90
63771;DHT22;60282;43.862;18.430;2023-06-14T05:19:08;18.90;99.90
63771;DHT22;60282;43.862;18.430;2023-06-14T05:21:36;18.60;99.90
63771;DHT22;60282;43.862;18.430;2023-06-14T05:24:02;18.80;99.90
63771;DHT22;60282;43.862;18.430;2023-06-14T05:26:28;18.90;99.90
63771;DHT22;60282;43.862;18.430;2023-06-14T05:28:57;18.60;99.90
63771;DHT22;60282;43.862;18.430;2023-06-14T05:31:27;18.90;99.90
63771;DHT22;60282;43.862;18.430;2023-06-14T05:33:53;18.70;99.90
63771;DHT22;60282;43.862;18.430;2023-06-14T05:36:20;18.70;99.90
63771;DHT22;60282;43.862;18.430;2023-06-14T05:38:49;18.70;99.90
63771;DHT22;60282;43.862;18.430;2023-06-14T05:41:16;18.70;99.90
63771;DHT22;60282;43.862;18.430;2023-06-14T05:43:41;19.20;99.90
63771;DHT22;60282;43.862;18.430;2023-06-14T05:46:07;19.00;99.90
63771;DHT22;60282;43.862;18.430;2023-06-14T05:48:33;19.20;99.90
63771;DHT22;60282;43.862;18.430;2023-06-14T05:50:59;19.20;99.90
63771;DHT22;60282;43.862;18.430;2023-06-14T05:53:25;19.20;99.90
63771;DHT22;60282;43.862;18.430;2023-06-14T05:55:51;19.60;99.90
63771;DHT22;60282;43.862;18.430;2023-06-14T05:58:21;19.10;99.90
63771;DHT22;60282;43.862;18.430;2023-06-14T06:00:46;19.10;99.90
63771;DHT22;60282;43.862;18.430;2023-06-14T06:03:12;18.80;99.90
63771;DHT22;60282;43.862;18.430;2023-06-14T06:05:39;18.80;99.90
63771;DHT22;60282;43.862;18.430;2023-06-14T06:08:04;18.80;99.90
63771;DHT22;60282;43.862;18.430;2023-06-14T06:10:30;19.10;99.90
63771;DHT22;60282;43.862;18.430;2023-06-14T06:12:56;18.80;99.90
63771;DHT22;60282;43.862;18.430;2023-06-14T06:15:22;18.90;99.90
63771;DHT22;60282;43.862;18.430;2023-06-14T06:17:47;18.70;99.90
63771;DHT22;60282;43.862;18.430;2023-06-14T06:20:13;18.50;99.90
63771;DHT22;60282;43.862;18.430;2023-06-14T06:22:39;18.40;99.90
63771;DHT22;60282;43.862;18.430;2023-06-14T06:25:05;18.30;99.90
63771;DHT22;60282;43.862;18.430;2023-06-14T06:27:32;18.20;99.90
63771;DHT22;60282;43.862;18.430;2023-06-14T06:29:57;19.70;99.90
63771;DHT22;60282;43.862;18.430;2023-06-14T06:32:23;18.10;99.90
63771;DHT22;60282;43.862;18.430;2023-06-14T06:34:49;18.20;99.90
63771;DHT22;60282;43.862;18.430;2023-06-14T06:37:15;18.20;99.90
63771;DHT22;60282;43.862;18.430;2023-06-14T06:39:41;18.20;99.90
63771;DHT22;60282;43.862;18.430;2023-06-14T06:42:07;18.70;99.90
63771;DHT22;60282;43.862;18.430;2023-06-14T06:44:33;18.50;99.90
63771;DHT22;60282;43.862;18.430;2023-06-14T06:46:59;18.60;99.90
63771;DHT22;60282;43.862;18.430;2023-06-14T06:49:25;18.80;99.90
63771;DHT22;60282;43.862;18.430;2023-06-14T06:52:06;18.80;99.90
63771;DHT22;60282;43.862;18.430;2023-06-14T06:54:32;19.00;99.90
63771;DHT22;60282;43.862;18.430;2023-06-14T06:56:59;19.10;99.90
63771;DHT22;60282;43.862;18.430;2023-06-14T06:59:25;19.10;99.90
63771;DHT22;60282;43.862;18.430;2023-06-14T07:01:51;18.90;99.90
63771;DHT22;60282;43.862;18.430;2023-06-14T07:04:17;19.50;99.90
63771;DHT22;60282;43.862;18.430;2023-06-14T07:06:42;22.80;99.90
63771;DHT22;60282;43.862;18.430;2023-06-14T07:09:09;19.80;99.90
63771;DHT22;60282;43.862;18.430;2023-06-14T07:11:42;20.00;99.90
63771;DHT22;60282;43.862;18.430;2023-06-14T07:14:08;20.00;99.90
63771;DHT22;60282;43.862;18.430;2023-06-14T07:16:34;20.10;99.90
63771;DHT22;60282;43.862;18.430;2023-06-14T07:19:01;21.50;99.90
63771;DHT22;60282;43.862;18.430;2023-06-14T07:21:26;20.20;99.90
63771;DHT22;60282;43.862;18.430;2023-06-14T07:23:53;20.40;99.90
63771;DHT22;60282;43.862;18.430;2023-06-14T07:26:19;20.50;99.90
63771;DHT22;60282;43.862;18.430;2023-06-14T07:28:46;20.60;99.90
63771;DHT22;60282;43.862;18.430;2023-06-14T07:33:39;21.10;99.90
63771;DHT22;60282;43.862;18.430;2023-06-14T07:36:05;21.20;99.90
63771;DHT22;60282;43.862;18.430;2023-06-14T07:38:31;21.30;99.90
63771;DHT22;60282;43.862;18.430;2023-06-14T07:41:00;20.10;99.90
63771;DHT22;60282;43.862;18.430;2023-06-14T07:45:55;21.60;99.90
63771;DHT22;60282;43.862;18.430;2023-06-14T07:50:47;22.00;99.90
63771;DHT22;60282;43.862;18.430;2023-06-14T07:53:12;22.10;99.90
63771;DHT22;60282;43.862;18.430;2023-06-14T07:55:38;22.10;99.90
63771;DHT22;60282;43.862;18.430;2023-06-14T07:58:09;22.10;99.90
63771;DHT22;60282;43.862;18.430;2023-06-14T08:00:45;22.20;99.90
63771;DHT22;60282;43.862;18.430;2023-06-14T08:03:11;22.40;99.90
63771;DHT22;60282;43.862;18.430;2023-06-14T08:05:37;22.50;99.90
63771;DHT22;60282;43.862;18.430;2023-06-14T08:08:03;22.60;99.90
63771;DHT22;60282;43.862;18.430;2023-06-14T08:10:29;22.80;99.90
63771;DHT22;60282;43.862;18.430;2023-06-14T08:12:55;22.70;99.90
63771;DHT22;60282;43.862;18.430;2023-06-14T08:15:20;22.60;99.90
63771;DHT22;60282;43.862;18.430;2023-06-14T08:17:46;22.80;99.90
63771;DHT22;60282;43.862;18.430;2023-06-14T08:20:13;22.80;99.90
63771;DHT22;60282;43.862;18.430;2023-06-14T08:22:42;22.50;99.90
63771;DHT22;60282;43.862;18.430;2023-06-14T08:25:08;23.00;99.90
63771;DHT22;60282;43.862;18.430;2023-06-14T08:27:34;23.10;99.90
63771;DHT22;60282;43.862;18.430;2023-06-14T08:30:01;23.00;99.90
63771;DHT22;60282;43.862;18.430;2023-06-14T08:32:28;23.20;99.90
63771;DHT22;60282;43.862;18.430;2023-06-14T08:34:53;23.00;99.90
63771;DHT22;60282;43.862;18.430;2023-06-14T08:37:19;23.70;99.90
63771;DHT22;60282;43.862;18.430;2023-06-14T08:39:46;23.80;99.90
63771;DHT22;60282;43.862;18.430;2023-06-14T08:42:12;24.10;99.90
63771;DHT22;60282;43.862;18.430;2023-06-14T08:44:39;24.20;99.90
63771;DHT22;60282;43.862;18.430;2023-06-14T08:47:07;24.40;99.90
63771;DHT22;60282;43.862;18.430;2023-06-14T08:49:33;24.50;99.90
63771;DHT22;60282;43.862;18.430;2023-06-14T08:52:01;24.60;99.90
63771;DHT22;60282;43.862;18.430;2023-06-14T08:54:30;24.70;99.90
63771;DHT22;60282;43.862;18.430;2023-06-14T08:56:57;24.50;99.90
63771;DHT22;60282;43.862;18.430;2023-06-14T08:59:26;24.70;99.90
63771;DHT22;60282;43.862;18.430;2023-06-14T09:01:53;24.80;99.90
63771;DHT22;60282;43.862;18.430;2023-06-14T09:04:22;25.00;99.90
63771;DHT22;60282;43.862;18.430;2023-06-14T09:06:49;25.10;99.90
63771;DHT22;60282;43.862;18.430;2023-06-14T09:09:21;25.00;99.90
63771;DHT22;60282;43.862;18.430;2023-06-14T09:11:51;24.70;99.90
63771;DHT22;60282;43.862;18.430;2023-06-14T09:14:21;24.60;99.90
63771;DHT22;60282;43.862;18.430;2023-06-14T09:16:47;24.80;99.90
63771;DHT22;60282;43.862;18.430;2023-06-14T09:19:25;25.50;99.90
63771;DHT22;60282;43.862;18.430;2023-06-14T09:21:51;21.90;99.90
63771;DHT22;60282;43.862;18.430;2023-06-14T09:24:19;24.70;99.90
63771;DHT22;60282;43.862;18.430;2023-06-14T09:26:47;24.50;99.90
63771;DHT22;60282;43.862;18.430;2023-06-14T09:29:13;24.40;99.90
63771;DHT22;60282;43.862;18.430;2023-06-14T09:31:42;24.20;99.90
63771;DHT22;60282;43.862;18.430;2023-06-14T09:34:09;24.00;99.90
63771;DHT22;60282;43.862;18.430;2023-06-14T09:36:34;23.70;99.90
63771;DHT22;60282;43.862;18.430;2023-06-14T09:39:02;23.70;99.90
63771;DHT22;60282;43.862;18.430;2023-06-14T09:44:02;23.80;99.90
63771;DHT22;60282;43.862;18.430;2023-06-14T09:46:29;23.80;99.90
63771;DHT22;60282;43.862;18.430;2023-06-14T09:48:58;23.90;99.90
63771;DHT22;60282;43.862;18.430;2023-06-14T09:51:25;23.90;99.90
63771;DHT22;60282;43.862;18.430;2023-06-14T09:53:51;23.80;99.90
63771;DHT22;60282;43.862;18.430;2023-06-14T09:56:28;23.90;99.90
63771;DHT22;60282;43.862;18.430;2023-06-14T09:58:56;23.90;99.90
63771;DHT22;60282;43.862;18.430;2023-06-14T10:01:26;24.20;99.90
63771;DHT22;60282;43.862;18.430;2023-06-14T10:03:59;24.40;99.90
63771;DHT22;60282;43.862;18.430;2023-06-14T10:06:26;24.60;99.90
63771;DHT22;60282;43.862;18.430;2023-06-14T10:08:57;25.00;99.90
63771;DHT22;60282;43.862;18.430;2023-06-14T10:11:26;25.50;99.90
63771;DHT22;60282;43.862;18.430;2023-06-14T10:13:52;25.90;99.90
63771;DHT22;60282;43.862;18.430;2023-06-14T10:17:00;26.30;99.90
63771;DHT22;60282;43.862;18.430;2023-06-14T10:19:25;26.60;98.90
63771;DHT22;60282;43.862;18.430;2023-06-14T10:22:09;26.70;99.10
63771;DHT22;60282;43.862;18.430;2023-06-14T10:24:43;26.90;97.90
63771;DHT22;60282;43.862;18.430;2023-06-14T10:27:09;27.30;96.50
63771;DHT22;60282;43.862;18.430;2023-06-14T10:32:20;26.60;97.60
63771;DHT22;60282;43.862;18.430;2023-06-14T10:34:58;26.60;96.40
63771;DHT22;60282;43.862;18.430;2023-06-14T10:37:24;26.50;96.20
63771;DHT22;60282;43.862;18.430;2023-06-14T10:39:51;26.10;97.60
63771;DHT22;60282;43.862;18.430;2023-06-14T10:42:17;26.10;97.60
63771;DHT22;60282;43.862;18.430;2023-06-14T10:44:49;22.90;95.60
63771;DHT22;60282;43.862;18.430;2023-06-14T10:47:31;25.90;96.50
63771;DHT22;60282;43.862;18.430;2023-06-14T10:52:32;26.20;95.00
63771;DHT22;60282;43.862;18.430;2023-06-14T10:55:05;26.80;95.10
63771;DHT22;60282;43.862;18.430;2023-06-14T10:57:32;27.30;92.80
63771;DHT22;60282;43.862;18.430;2023-06-14T11:00:00;27.10;92.70
63771;DHT22;60282;43.862;18.430;2023-06-14T11:02:48;27.40;93.20
63771;DHT22;60282;43.862;18.430;2023-06-14T11:05:26;27.80;90.40
63771;DHT22;60282;43.862;18.430;2023-06-14T11:10:38;27.50;90.50
63771;DHT22;60282;43.862;18.430;2023-06-14T11:13:04;27.40;88.10
63771;DHT22;60282;43.862;18.430;2023-06-14T11:15:30;27.20;90.60
63771;DHT22;60282;43.862;18.430;2023-06-14T11:18:04;27.30;90.60
63771;DHT22;60282;43.862;18.430;2023-06-14T11:20:31;27.30;88.90
63771;DHT22;60282;43.862;18.430;2023-06-14T11:22:58;26.80;84.30
63771;DHT22;60282;43.862;18.430;2023-06-14T11:25:25;26.90;87.70
63771;DHT22;60282;43.862;18.430;2023-06-14T11:27:52;26.80;91.80
63771;DHT22;60282;43.862;18.430;2023-06-14T11:30:18;27.70;98.60
63771;DHT22;60282;43.862;18.430;2023-06-14T11:32:50;25.30;99.90
63771;DHT22;60282;43.862;18.430;2023-06-14T11:35:17;24.90;99.90
63771;DHT22;60282;43.862;18.430;2023-06-14T11:37:44;24.20;99.90
63771;DHT22;60282;43.862;18.430;2023-06-14T11:40:11;24.10;99.90
63771;DHT22;60282;43.862;18.430;2023-06-14T11:42:38;24.10;99.90
63771;DHT22;60282;43.862;18.430;2023-06-14T11:45:07;23.80;99.90
63771;DHT22;60282;43.862;18.430;2023-06-14T11:47:33;23.70;99.90
63771;DHT22;60282;43.862;18.430;2023-06-14T11:50:00;22.50;99.90
63771;DHT22;60282;43.862;18.430;2023-06-14T11:52:26;22.00;99.90
63771;DHT22;60282;43.862;18.430;2023-06-14T11:54:53;21.70;99.90
63771;DHT22;60282;43.862;18.430;2023-06-14T11:57:19;21.60;99.90
63771;DHT22;60282;43.862;18.430;2023-06-14T11:59:45;21.50;99.90
63771;DHT22;60282;43.862;18.430;2023-06-14T12:02:18;20.90;99.90
63771;DHT22;60282;43.862;18.430;2023-06-14T12:04:47;21.10;99.90
63771;DHT22;60282;43.862;18.430;2023-06-14T12:07:17;20.90;99.90
63771;DHT22;60282;43.862;18.430;2023-06-14T12:12:26;21.00;99.90
63771;DHT22;60282;43.862;18.430;2023-06-14T12:14:52;20.90;99.90
63771;DHT22;60282;43.862;18.430;2023-06-14T12:17:19;20.90;99.90
63771;DHT22;60282;43.862;18.430;2023-06-14T12:19:46;21.20;99.90
63771;DHT22;60282;43.862;18.430;2023-06-14T12:22:16;21.50;99.90
63771;DHT22;60282;43.862;18.430;2023-06-14T12:24:45;21.70;99.90
63771;DHT22;60282;43.862;18.430;2023-06-14T12:27:12;21.90;99.90
63771;DHT22;60282;43.862;18.430;2023-06-14T12:29:41;21.90;99.90
63771;DHT22;60282;43.862;18.430;2023-06-14T12:32:11;22.00;99.90
63771;DHT22;60282;43.862;18.430;2023-06-14T12:34:37;22.30;99.90
63771;DHT22;60282;43.862;18.430;2023-06-14T12:39:30;22.60;99.90
63771;DHT22;60282;43.862;18.430;2023-06-14T12:41:59;22.40;99.90
63771;DHT22;60282;43.862;18.430;2023-06-14T12:44:24;22.10;99.90
63771;DHT22;60282;43.862;18.430;2023-06-14T12:46:50;21.50;99.90
63771;DHT22;60282;43.862;18.430;2023-06-14T12:49:20;21.60;99.90
63771;DHT22;60282;43.862;18.430;2023-06-14T12:51:46;21.20;99.90
63771;DHT22;60282;43.862;18.430;2023-06-14T12:54:12;20.90;99.90
63771;DHT22;60282;43.862;18.430;2023-06-14T12:56:40;20.60;99.90
63771;DHT22;60282;43.862;18.430;2023-06-14T13:01:33;20.30;99.90
63771;DHT22;60282;43.862;18.430;2023-06-14T13:03:59;20.10;99.90
63771;DHT22;60282;43.862;18.430;2023-06-14T13:06:24;20.10;99.90
63771;DHT22;60282;43.862;18.430;2023-06-14T13:08:50;20.00;99.90
63771;DHT22;60282;43.862;18.430;2023-06-14T13:11:16;20.10;99.90
63771;DHT22;60282;43.862;18.430;2023-06-14T13:13:42;20.00;99.90
63771;DHT22;60282;43.862;18.430;2023-06-14T13:16:08;19.90;99.90
63771;DHT22;60282;43.862;18.430;2023-06-14T13:18:33;20.00;99.90
63771;DHT22;60282;43.862;18.430;2023-06-14T13:20:59;21.40;99.90
63771;DHT22;60282;43.862;18.430;2023-06-14T13:23:26;19.80;99.90
63771;DHT22;60282;43.862;18.430;2023-06-14T13:25:52;19.80;99.90
63771;DHT22;60282;43.862;18.430;2023-06-14T13:28:18;19.90;99.90
63771;DHT22;60282;43.862;18.430;2023-06-14T13:30:44;19.90;99.90
63771;DHT22;60282;43.862;18.430;2023-06-14T13:33:10;19.90;99.90
63771;DHT22;60282;43.862;18.430;2023-06-14T13:35:36;20.00;99.90
63771;DHT22;60282;43.862;18.430;2023-06-14T13:38:01;20.10;99.90
63771;DHT22;60282;43.862;18.430;2023-06-14T13:40:27;20.10;99.90
63771;DHT22;60282;43.862;18.430;2023-06-14T13:42:53;20.20;99.90
63771;DHT22;60282;43.862;18.430;2023-06-14T13:45:19;20.40;99.90
63771;DHT22;60282;43.862;18.430;2023-06-14T13:47:44;20.50;99.90
63771;DHT22;60282;43.862;18.430;2023-06-14T13:50:14;20.60;99.90
63771;DHT22;60282;43.862;18.430;2023-06-14T13:52:43;18.50;99.90
63771;DHT22;60282;43.862;18.430;2023-06-14T13:55:09;18.60;99.90
63771;DHT22;60282;43.862;18.430;2023-06-14T13:57:35;21.20;99.90
63771;DHT22;60282;43.862;18.430;2023-06-14T14:00:01;21.10;99.90
63771;DHT22;60282;43.862;18.430;2023-06-14T14:02:30;21.40;99.90
63771;DHT22;60282;43.862;18.430;2023-06-14T14:04:56;21.40;99.90
63771;DHT22;60282;43.862;18.430;2023-06-14T14:07:23;21.50;99.90
63771;DHT22;60282;43.862;18.430;2023-06-14T14:09:49;21.60;99.90
63771;DHT22;60282;43.862;18.430;2023-06-14T14:12:14;21.80;99.90
63771;DHT22;60282;43.862;18.430;2023-06-14T14:14:40;21.90;99.90
63771;DHT22;60282;43.862;18.430;2023-06-14T14:17:06;21.90;99.90
63771;DHT22;60282;43.862;18.430;2023-06-14T14:19:32;22.70;99.90
63771;DHT22;60282;43.862;18.430;2023-06-14T14:21:58;22.00;99.90
63771;DHT22;60282;43.862;18.430;2023-06-14T14:24:24;22.00;99.90
63771;DHT22;60282;43.862;18.430;2023-06-14T14:26:50;22.10;99.90
63771;DHT22;60282;43.862;18.430;2023-06-14T14:29:19;22.20;99.90
63771;DHT22;60282;43.862;18.430;2023-06-14T14:31:45;22.30;99.90
63771;DHT22;60282;43.862;18.430;2023-06-14T14:34:12;22.40;99.90
63771;DHT22;60282;43.862;18.430;2023-06-14T14:36:37;22.40;99.90
63771;DHT22;60282;43.862;18.430;2023-06-14T14:39:08;22.30;99.90
63771;DHT22;60282;43.862;18.430;2023-06-14T14:41:33;21.30;99.90
63771;DHT22;60282;43.862;18.430;2023-06-14T14:43:59;22.00;99.90
63771;DHT22;60282;43.862;18.430;2023-06-14T14:46:27;22.00;99.90
63771;DHT22;60282;43.862;18.430;2023-06-14T14:48:53;21.90;99.90
63771;DHT22;60282;43.862;18.430;2023-06-14T14:51:19;21.90;99.90
63771;DHT22;60282;43.862;18.430;2023-06-14T14:53:45;21.90;99.90
63771;DHT22;60282;43.862;18.430;2023-06-14T14:56:11;22.00;99.90
63771;DHT22;60282;43.862;18.430;2023-06-14T14:58:37;22.10;99.90
63771;DHT22;60282;43.862;18.430;2023-06-14T15:01:03;21.70;99.90
63771;DHT22;60282;43.862;18.430;2023-06-14T15:03:31;22.10;99.90
63771;DHT22;60282;43.862;18.430;2023-06-14T15:05:57;21.90;99.90
63771;DHT22;60282;43.862;18.430;2023-06-14T15:08:23;21.60;99.90
63771;DHT22;60282;43.862;18.430;2023-06-14T15:10:48;21.70;99.90
63771;DHT22;60282;43.862;18.430;2023-06-14T15:13:14;21.60;99.90
63771;DHT22;60282;43.862;18.430;2023-06-14T15:15:40;21.40;99.90
63771;DHT22;60282;43.862;18.430;2023-06-14T15:18:06;21.40;99.90
63771;DHT22;60282;43.862;18.430;2023-06-14T15:20:32;21.40;99.90
63771;DHT22;60282;43.862;18.430;2023-06-14T15:22:57;21.50;99.90
63771;DHT22;60282;43.862;18.430;2023-06-14T15:25:28;21.50;99.90
63771;DHT22;60282;43.862;18.430;2023-06-14T15:27:55;21.50;99.90
63771;DHT22;60282;43.862;18.430;2023-06-14T15:30:21;21.60;99.90
63771;DHT22;60282;43.862;18.430;2023-06-14T15:32:48;21.60;99.90
63771;DHT22;60282;43.862;18.430;2023-06-14T15:35:16;21.80;99.90
63771;DHT22;60282;43.862;18.430;2023-06-14T15:37:42;21.90;99.90
63771;DHT22;60282;43.862;18.430;2023-06-14T15:40:08;21.90;99.90
63771;DHT22;60282;43.862;18.430;2023-06-14T15:42:34;21.70;99.90
63771;DHT22;60282;43.862;18.430;2023-06-14T15:45:00;20.30;99.90